DuBois Regional Airport Dubois US
ICAO: KDUJ
IATA: DUJ
Category: Medium
Scheduled Services: Yes

Elevation: 1817 ft
TransAlt. 18000 ft.

Airport Communications:
ASOS:119.025
CLEVELAND CNTR:126.72
CTAF:123
ALTOONA RDO:122.2
UNICOM:123

KDUJ Zoom In..

If you have problems with the map follow the link
https://www.worldairports.se/pages/airport.php?
ICAO=KDUJ

Runways:

(A) RW 07 length 5503 ft width 100 ft
---- / hdg 72

(B) RW 25 length 5503 ft width 100 ft
ILS 109.90 / hdg 252

Location; KDUJ
Day. 18 / Time. 21.46 Zulu
* Altimeter: 30.06
* Temperature: -01° c. -30.2°f.
* Wind from: 300° Speed 04 kn.
Dewpoint: -04° c.
Visibility: 9 Statute Miles.
Clouds: Scattered 2000 ft.
Clouds: Overcast 3300 ft.

KDUJ 182146Z AUTO 30004KT 9SM SCT020 OVC033 M01/M04 A3006 RMK AO2 T10111044


Wind From 300°
Speed 04 kn.

 
 
jpsmedia.com for Web Design worldairports.se 2019   terms of use